Time;durP1;ratioP1;P1;durP2;ratioP2;P2;SDS_P1;SDS_P2;PMS_P1;PMS_P2;Temp;Humidity;BMP_temperature;BMP_pressure;BME280_temperature;BME280_humidity;BME280_pressure;Samples;Min_cycle;Max_cycle;Signal;HPM_P1;HPM_P2
2022/08/13 00:00:36;;;;;;;4.82;4.43;;;22.80;99.90;;;;;;5113763;28;20249;-74
2022/08/13 00:03:03;;;;;;;10.13;5.28;;;22.70;99.90;;;;;;5113876;28;20167;-74
2022/08/13 00:05:28;;;;;;;8.20;4.60;;;22.50;99.90;;;;;;5113931;28;20649;-74
2022/08/13 00:07:54;;;;;;;4.30;3.75;;;22.50;99.90;;;;;;5113561;28;20171;-75
2022/08/13 00:13:00;;;;;;;7.97;5.25;;;22.40;99.90;;;;;;5113823;28;20167;-75
2022/08/13 00:15:39;;;;;;;7.65;4.90;;;22.30;99.90;;;;;;5113660;28;20178;-75
2022/08/13 00:18:09;;;;;;;10.20;4.60;;;22.30;99.90;;;;;;5113490;28;20214;-74
2022/08/13 00:20:49;;;;;;;6.25;5.60;;;22.30;99.90;;;;;;5113107;28;20171;-75
2022/08/13 00:23:16;;;;;;;7.85;5.18;;;22.30;99.90;;;;;;5113509;28;20180;-74
2022/08/13 00:25:44;;;;;;;4.93;4.22;;;22.40;99.90;;;;;;5095242;28;20198;-76
2022/08/13 00:28:11;;;;;;;7.65;5.85;;;22.30;99.90;;;;;;5113435;28;20186;-75
2022/08/13 00:30:38;;;;;;;5.85;4.00;;;22.30;99.90;;;;;;5113805;28;20176;-74
2022/08/13 00:33:11;;;;;;;5.10;4.53;;;22.20;99.90;;;;;;5113631;28;20168;-75
2022/08/13 00:35:38;;;;;;;7.53;4.82;;;22.20;99.90;;;;;;5113984;28;20174;-74
2022/08/13 00:38:13;;;;;;;6.13;4.22;;;22.20;99.90;;;;;;5094858;28;20626;-74
2022/08/13 00:40:59;;;;;;;4.88;3.80;;;22.20;99.90;;;;;;5095112;28;20242;-74
2022/08/13 00:43:27;;;;;;;8.25;3.88;;;22.20;99.90;;;;;;5113613;28;20171;-74
2022/08/13 00:45:54;;;;;;;4.82;4.35;;;22.20;99.90;;;;;;5113464;28;20179;-75
2022/08/13 00:51:08;;;;;;;5.43;4.10;;;22.20;99.90;;;;;;5113445;28;20587;-73
2022/08/13 00:53:39;;;;;;;8.07;5.38;;;22.20;99.90;;;;;;5113564;28;20422;-74
2022/08/13 00:56:08;;;;;;;4.50;4.00;;;22.20;99.90;;;;;;5095145;28;20199;-73
2022/08/13 00:58:35;;;;;;;5.40;4.78;;;22.20;99.90;;;;;;5113567;28;20622;-74
2022/08/13 01:01:02;;;;;;;4.70;4.30;;;22.20;99.90;;;;;;5113196;28;20186;-73
2022/08/13 01:03:30;;;;;;;5.45;4.20;;;22.20;99.90;;;;;;5094699;28;20682;-74
2022/08/13 01:05:59;;;;;;;6.15;3.70;;;22.10;99.90;;;;;;5112966;28;20166;-74
2022/08/13 01:08:26;;;;;;;6.53;4.25;;;22.10;99.90;;;;;;5094678;28;20202;-74
2022/08/13 01:10:56;;;;;;;6.65;4.50;;;22.10;99.90;;;;;;5113180;28;20251;-74
2022/08/13 01:13:25;;;;;;;8.63;4.40;;;22.00;99.90;;;;;;5113201;28;20171;-73
2022/08/13 01:15:52;;;;;;;14.25;3.83;;;21.80;1.00;;;;;;5112879;28;20231;-73
2022/08/13 01:18:24;;;;;;;6.93;4.43;;;21.60;1.00;;;;;;5112933;28;20183;-73
2022/08/13 01:21:00;;;;;;;8.75;4.00;;;21.50;1.00;;;;;;5094530;28;20573;-73
2022/08/13 01:23:30;;;;;;;6.72;4.18;;;21.50;1.00;;;;;;5094790;28;20167;-74
2022/08/13 01:25:59;;;;;;;7.60;4.07;;;21.40;22.00;;;;;;5094708;28;20660;-74
2022/08/13 01:28:28;;;;;;;6.40;4.10;;;21.30;55.50;;;;;;5112851;28;20845;-74
2022/08/13 01:30:56;;;;;;;5.10;4.40;;;21.30;94.90;;;;;;5113064;28;20636;-74
2022/08/13 01:33:23;;;;;;;6.88;4.00;;;21.30;12.00;;;;;;5114711;28;20736;-75
2022/08/13 01:35:50;;;;;;;5.50;4.35;;;21.20;30.20;;;;;;5116401;28;20191;-73
2022/08/13 01:38:20;;;;;;;6.07;4.65;;;21.20;99.90;;;;;;5116678;28;20167;-74
2022/08/13 01:40:47;;;;;;;11.45;4.80;;;21.20;99.90;;;;;;5116354;28;20217;-74
2022/08/13 01:43:13;;;;;;;9.48;4.43;;;21.20;99.90;;;;;;5116797;28;20163;-74
2022/08/13 01:45:43;;;;;;;6.05;4.55;;;21.10;99.90;;;;;;5116667;28;20258;-74
2022/08/13 01:50:53;;;;;;;8.27;4.50;;;21.00;99.90;;;;;;5116277;28;20183;-74
2022/08/13 01:53:18;;;;;;;6.53;4.50;;;21.00;1.00;;;;;;5098059;28;20497;-74
2022/08/13 01:55:48;;;;;;;8.77;4.50;;;21.00;1.00;;;;;;5116336;28;20630;-73
2022/08/13 01:58:19;;;;;;;10.57;5.15;;;20.90;1.00;;;;;;5116250;28;20171;-74
2022/08/13 02:00:47;;;;;;;9.52;4.80;;;20.90;1.00;;;;;;5116154;28;20190;-74
2022/08/13 02:03:16;;;;;;;9.68;4.63;;;20.90;1.00;;;;;;5115732;28;20638;-74
2022/08/13 02:05:42;;;;;;;6.30;4.50;;;20.80;1.00;;;;;;5116172;28;20176;-74
2022/08/13 02:08:11;;;;;;;7.57;4.63;;;20.80;99.90;;;;;;5116038;28;20170;-74
2022/08/13 02:10:40;;;;;;;5.63;4.00;;;20.80;99.90;;;;;;5116062;28;20194;-73
2022/08/13 02:13:10;;;;;;;9.38;4.47;;;20.90;1.00;;;;;;5116079;28;20634;-74
2022/08/13 02:15:36;;;;;;;11.35;4.53;;;20.90;99.90;;;;;;5115937;28;20296;-72
2022/08/13 02:18:04;;;;;;;6.15;4.35;;;20.80;99.90;;;;;;5075035;28;20691;-74
2022/08/13 02:20:34;;;;;;;4.70;4.30;;;20.90;99.90;;;;;;5075271;28;20184;-74
2022/08/13 02:23:00;;;;;;;4.22;3.90;;;20.80;99.90;;;;;;5075458;28;20210;-74
2022/08/13 02:25:28;;;;;;;6.72;4.03;;;20.80;1.00;;;;;;5075165;28;20172;-73
2022/08/13 02:27:55;;;;;;;4.53;4.13;;;20.60;1.00;;;;;;5075027;28;20185;-74
2022/08/13 02:30:22;;;;;;;6.32;4.47;;;20.60;1.00;;;;;;5075055;28;20249;-74
2022/08/13 02:32:49;;;;;;;6.97;4.50;;;20.50;1.00;;;;;;5074516;28;20164;-74
2022/08/13 02:35:17;;;;;;;8.95;5.35;;;20.40;99.90;;;;;;5074949;28;20192;-73
2022/08/13 02:37:44;;;;;;;8.10;4.40;;;20.30;1.00;;;;;;5074968;28;20211;-73
2022/08/13 02:42:59;;;;;;;6.30;4.00;;;20.20;99.90;;;;;;5032681;28;20516;-74
2022/08/13 02:45:26;;;;;;;4.40;3.85;;;20.10;1.00;;;;;;5015824;28;20189;-73
2022/08/13 02:47:55;;;;;;;4.68;4.22;;;20.00;25.00;;;;;;5032367;28;20178;-74
2022/08/13 02:50:21;;;;;;;10.88;4.28;;;20.00;99.90;;;;;;5032603;28;20218;-74
2022/08/13 02:52:51;;;;;;;7.28;4.50;;;20.00;99.90;;;;;;5032612;28;20174;-74
2022/08/13 02:55:22;;;;;;;8.07;4.20;;;20.00;1.00;;;;;;5032599;28;20185;-73
2022/08/13 02:57:49;;;;;;;8.88;4.20;;;20.00;99.90;;;;;;5032386;28;20174;-73
2022/08/13 03:00:17;;;;;;;7.95;3.88;;;19.90;1.00;;;;;;5032390;28;20182;-74
2022/08/13 03:02:45;;;;;;;10.02;4.47;;;20.00;1.00;;;;;;5031942;28;20266;-73
2022/08/13 03:05:15;;;;;;;10.68;4.63;;;19.90;1.00;;;;;;5032458;28;20253;-73
2022/08/13 03:07:44;;;;;;;4.32;3.80;;;19.80;1.00;;;;;;5032277;28;20260;-74
2022/08/13 03:10:12;;;;;;;6.05;3.80;;;19.80;1.00;;;;;;5031879;28;20249;-73
2022/08/13 03:12:41;;;;;;;4.13;3.83;;;19.80;1.00;;;;;;5032115;28;20185;-73
2022/08/13 03:15:10;;;;;;;5.40;4.22;;;19.60;1.00;;;;;;5032133;28;20166;-73
2022/08/13 03:17:37;;;;;;;9.07;3.88;;;19.60;1.00;;;;;;5031216;28;20741;-73
2022/08/13 03:20:06;;;;;;;6.55;4.13;;;19.60;1.00;;;;;;5053276;28;20180;-73
2022/08/13 03:22:31;;;;;;;8.27;3.60;;;19.60;1.00;;;;;;5072831;28;20211;-74
2022/08/13 03:24:57;;;;;;;6.75;3.97;;;19.60;1.00;;;;;;5073939;28;20651;-74
2022/08/13 03:27:25;;;;;;;4.60;3.80;;;19.50;1.00;;;;;;5072344;28;20223;-74
2022/08/13 03:29:53;;;;;;;6.88;4.20;;;19.50;1.00;;;;;;5073326;28;20236;-74
2022/08/13 03:32:18;;;;;;;7.05;4.18;;;19.40;99.90;;;;;;5073175;28;20160;-74
2022/08/13 03:34:44;;;;;;;6.88;3.47;;;19.40;99.90;;;;;;5073525;28;20259;-74
2022/08/13 03:37:11;;;;;;;3.88;3.65;;;19.40;99.90;;;;;;5073585;28;20218;-73
2022/08/13 03:39:37;;;;;;;5.45;4.18;;;19.40;99.90;;;;;;5073223;28;20175;-74
2022/08/13 03:42:02;;;;;;;4.40;3.95;;;19.40;99.90;;;;;;5073200;28;20533;-73
2022/08/13 03:44:28;;;;;;;5.43;3.92;;;19.40;99.90;;;;;;5073347;28;20172;-73
2022/08/13 03:46:54;;;;;;;4.57;3.60;;;19.40;99.90;;;;;;5072983;28;20184;-74
2022/08/13 03:49:20;;;;;;;13.48;3.90;;;19.40;99.90;;;;;;5073113;28;20273;-73
2022/08/13 03:51:46;;;;;;;6.25;3.78;;;19.30;1.00;;;;;;5073020;28;20176;-73
2022/08/13 03:54:12;;;;;;;5.95;3.70;;;19.20;1.00;;;;;;5073281;28;20176;-74
2022/08/13 03:56:39;;;;;;;4.05;3.75;;;19.20;1.00;;;;;;5072431;28;20172;-73
2022/08/13 03:59:04;;;;;;;9.30;3.85;;;19.20;1.00;;;;;;5072864;28;20187;-74
2022/08/13 04:01:30;;;;;;;7.28;3.80;;;19.30;1.00;;;;;;5072761;28;20627;-74
2022/08/13 04:03:55;;;;;;;6.20;3.83;;;19.20;1.00;;;;;;5073103;28;20183;-74
2022/08/13 04:06:22;;;;;;;6.05;3.85;;;19.30;99.90;;;;;;5072880;28;20243;-74
2022/08/13 04:08:49;;;;;;;5.68;3.78;;;19.20;50.00;;;;;;5071317;28;20242;-74
2022/08/13 04:11:17;;;;;;;5.32;3.67;;;19.20;1.00;;;;;;5072959;28;20210;-73
2022/08/13 04:13:43;;;;;;;8.82;4.22;;;19.10;99.90;;;;;;5072721;28;20168;-72
2022/08/13 04:16:14;;;;;;;5.53;3.80;;;19.10;99.90;;;;;;5077985;28;22221;-73
2022/08/13 04:18:42;;;;;;;6.30;4.25;;;19.10;1.00;;;;;;5113633;28;20220;-73
2022/08/13 04:21:11;;;;;;;10.77;4.20;;;19.10;1.00;;;;;;5094766;28;20255;-73
2022/08/13 04:23:39;;;;;;;6.55;3.88;;;19.20;1.00;;;;;;5113568;28;20167;-73
2022/08/13 04:26:08;;;;;;;6.78;3.75;;;19.10;1.00;;;;;;5113801;28;20174;-73
2022/08/13 04:28:34;;;;;;;6.72;3.90;;;19.10;1.00;;;;;;5112807;28;20308;-74
2022/08/13 04:31:00;;;;;;;8.53;4.07;;;19.20;99.90;;;;;;5113564;28;20174;-74
2022/08/13 04:33:27;;;;;;;6.90;3.92;;;19.10;1.00;;;;;;5113641;28;20253;-73
2022/08/13 04:35:53;;;;;;;7.95;4.15;;;19.20;1.00;;;;;;5113270;28;20580;-73
2022/08/13 04:38:19;;;;;;;13.55;4.68;;;19.20;1.00;;;;;;5113460;28;20258;-74
2022/08/13 04:40:46;;;;;;;7.68;4.07;;;19.20;1.00;;;;;;5112759;28;20167;-73
2022/08/13 04:43:13;;;;;;;10.75;4.20;;;19.20;1.00;;;;;;5112933;28;20182;-74
2022/08/13 04:45:41;;;;;;;8.85;4.10;;;19.60;1.00;;;;;;5113218;28;20224;-73
2022/08/13 04:48:15;;;;;;;13.13;4.57;;;20.00;99.90;;;;;;5112712;28;20156;-74
2022/08/13 04:50:43;;;;;;;11.43;4.55;;;20.60;1.00;;;;;;5094675;28;20274;-73
2022/08/13 04:53:40;;;;;;;6.60;4.32;;;21.10;99.90;;;;;;5112846;28;20628;-73
2022/08/13 04:56:06;;;;;;;10.70;4.65;;;21.70;1.00;;;;;;5112895;28;20170;-74
2022/08/13 04:58:34;;;;;;;9.90;4.28;;;22.10;1.00;;;;;;5112257;28;20169;-74
2022/08/13 05:01:08;;;;;;;8.45;4.63;;;22.70;1.00;;;;;;5112934;28;20163;-74
2022/08/13 05:03:38;;;;;;;6.75;4.13;;;23.40;99.90;;;;;;5113158;28;20178;-75
2022/08/13 05:06:05;;;;;;;9.27;4.57;;;24.20;99.90;;;;;;5112846;28;20591;-75
2022/08/13 05:08:32;;;;;;;4.32;3.47;;;24.60;99.90;;;;;;5116357;28;20191;-75
2022/08/13 05:10:59;;;;;;;12.27;4.35;;;25.20;99.90;;;;;;5116605;28;20183;-74
2022/08/13 05:13:30;;;;;;;7.55;3.90;;;25.40;99.90;;;;;;5116379;28;20182;-75
2022/08/13 05:15:58;;;;;;;12.68;4.10;;;26.10;99.90;;;;;;5116683;28;20167;-75
2022/08/13 05:18:26;;;;;;;9.73;4.97;;;26.70;99.90;;;;;;5098253;28;20198;-75
2022/08/13 05:20:53;;;;;;;11.15;3.90;;;26.90;99.90;;;;;;5116648;28;20175;-75
2022/08/13 05:23:19;;;;;;;9.25;3.70;;;27.10;99.90;;;;;;5116588;28;20164;-75
2022/08/13 05:25:45;;;;;;;9.15;3.92;;;27.00;99.90;;;;;;5116478;28;20250;-76
2022/08/13 05:28:11;;;;;;;10.07;4.40;;;27.50;99.90;;;;;;5115800;28;20222;-77
2022/08/13 05:30:38;;;;;;;11.40;3.67;;;27.40;99.90;;;;;;5116662;28;20205;-77
2022/08/13 05:33:16;;;;;;;8.05;3.60;;;27.00;99.90;;;;;;5116701;28;20159;-77
2022/08/13 05:35:44;;;;;;;7.20;3.72;;;28.30;99.90;;;;;;5116237;28;20227;-77
2022/08/13 05:38:09;;;;;;;5.68;3.50;;;29.30;96.70;;;;;;5098009;28;20236;-78
2022/08/13 05:40:35;;;;;;;15.02;4.78;;;29.90;73.70;;;;;;5116363;28;20635;-77
2022/08/13 05:43:02;;;;;;;8.60;3.65;;;30.60;56.50;;;;;;5097677;28;20526;-77
2022/08/13 05:45:28;;;;;;;6.68;3.75;;;31.40;36.60;;;;;;5116755;28;20234;-77
2022/08/13 05:47:53;;;;;;;5.68;3.40;;;32.00;23.60;;;;;;5116344;28;20183;-76
2022/08/13 05:50:19;;;;;;;7.55;3.33;;;32.30;14.20;;;;;;5097796;28;20221;-77
2022/08/13 05:52:45;;;;;;;8.98;3.55;;;32.20;8.10;;;;;;5116121;28;20177;-77
2022/08/13 05:55:13;;;;;;;17.80;4.18;;;33.10;1.00;;;;;;5115812;28;20210;-77
2022/08/13 05:57:39;;;;;;;5.47;3.30;;;33.80;1.00;;;;;;5115954;28;20168;-78
2022/08/13 06:05:37;;;;;;;5.57;3.13;;;34.70;1.00;;;;;;5116139;28;20262;-77
2022/08/13 06:08:05;;;;;;;10.60;3.45;;;33.90;1.00;;;;;;5115735;28;20205;-76
2022/08/13 06:10:31;;;;;;;5.90;3.53;;;34.20;1.00;;;;;;5115148;28;20718;-77
2022/08/13 06:12:57;;;;;;;7.60;3.60;;;33.40;1.00;;;;;;5115563;28;20169;-77
2022/08/13 06:15:23;;;;;;;6.63;2.50;;;33.50;1.00;;;;;;5115358;28;20167;-77
2022/08/13 06:17:51;;;;;;;4.18;2.90;;;33.10;1.00;;;;;;5115112;28;20215;-78
2022/08/13 06:20:17;;;;;;;2.67;2.45;;;33.40;1.00;;;;;;5115046;28;20173;-77
2022/08/13 06:22:47;;;;;;;4.63;2.00;;;33.90;1.00;;;;;;5115966;28;20168;-77
2022/08/13 06:25:16;;;;;;;4.35;2.20;;;34.00;1.00;;;;;;5096922;28;20220;-78
2022/08/13 06:27:43;;;;;;;4.13;2.13;;;34.20;1.00;;;;;;5115373;28;20218;-78
2022/08/13 06:30:11;;;;;;;4.30;2.15;;;33.50;1.00;;;;;;5116503;28;20289;-77
2022/08/13 06:32:37;;;;;;;3.22;2.30;;;33.50;1.00;;;;;;5115821;28;20168;-78
2022/08/13 06:35:06;;;;;;;4.05;2.45;;;34.30;1.00;;;;;;5115403;28;20217;-78
2022/08/13 06:37:32;;;;;;;2.58;2.10;;;34.40;1.00;;;;;;5115188;28;20626;-78
2022/08/13 06:39:59;;;;;;;4.70;2.30;;;35.10;1.00;;;;;;5095988;28;20163;-78
2022/08/13 06:42:26;;;;;;;2.42;2.13;;;35.80;1.00;;;;;;5096340;28;20232;-78
2022/08/13 06:44:55;;;;;;;2.30;2.10;;;35.30;1.00;;;;;;5114933;28;20188;-78
2022/08/13 06:47:23;;;;;;;2.10;2.00;;;33.60;1.00;;;;;;5096521;28;20228;-77
2022/08/13 06:49:50;;;;;;;2.45;2.03;;;34.20;1.00;;;;;;5114776;28;20206;-77
2022/08/13 06:52:15;;;;;;;2.58;2.05;;;34.60;1.00;;;;;;5114887;28;20171;-77
2022/08/13 06:54:42;;;;;;;2.95;1.95;;;35.60;1.00;;;;;;5114871;28;20182;-77
2022/08/13 06:57:09;;;;;;;2.40;1.88;;;36.00;1.00;;;;;;5114237;28;20159;-78
2022/08/13 06:59:39;;;;;;;2.10;1.98;;;35.70;1.00;;;;;;5114454;28;20259;-77
2022/08/13 07:02:08;;;;;;;2.35;1.70;;;36.50;1.00;;;;;;5114491;28;20599;-77
2022/08/13 07:04:34;;;;;;;1.85;1.70;;;37.20;1.00;;;;;;5114863;28;20187;-77
2022/08/13 07:07:00;;;;;;;3.95;1.90;;;37.90;1.00;;;;;;5114939;28;20178;-77
2022/08/13 07:09:27;;;;;;;2.88;2.10;;;38.70;1.00;;;;;;5113865;28;20202;-78
2022/08/13 07:11:54;;;;;;;3.70;1.80;;;39.40;1.00;;;;;;5114592;28;20194;-78
2022/08/13 07:14:20;;;;;;;2.25;1.63;;;40.00;1.00;;;;;;5114922;28;20630;-77
2022/08/13 07:16:46;;;;;;;3.22;1.90;;;39.40;1.00;;;;;;5114225;28;20304;-76
2022/08/13 07:19:13;;;;;;;4.32;1.90;;;39.10;1.00;;;;;;5114230;28;20599;-76
2022/08/13 07:21:42;;;;;;;1.88;1.77;;;39.10;1.00;;;;;;5114184;28;20222;-76
2022/08/13 07:24:10;;;;;;;2.72;2.05;;;40.00;1.00;;;;;;5114170;28;20224;-76
2022/08/13 07:26:36;;;;;;;2.45;1.98;;;41.20;1.00;;;;;;5114309;28;20171;-76
2022/08/13 07:29:05;;;;;;;2.63;1.90;;;41.60;1.00;;;;;;5114628;28;20610;-76
2022/08/13 07:31:33;;;;;;;2.92;1.65;;;40.10;1.00;;;;;;5114651;28;20163;-76
2022/08/13 07:34:04;;;;;;;3.53;1.80;;;39.60;1.00;;;;;;5114064;28;20173;-76
2022/08/13 07:36:36;;;;;;;3.38;2.00;;;38.50;1.00;;;;;;5114327;28;20167;-77
2022/08/13 07:39:09;;;;;;;1.70;1.60;;;37.50;1.00;;;;;;5113441;28;20170;-77
2022/08/13 07:41:45;;;;;;;1.80;1.70;;;37.80;1.00;;;;;;5114088;28;20185;-77
2022/08/13 07:44:20;;;;;;;5.40;1.80;;;38.10;1.00;;;;;;5114011;28;20249;-76
2022/08/13 07:46:48;;;;;;;2.97;1.88;;;38.10;1.00;;;;;;5114226;28;20181;-75
2022/08/13 07:49:15;;;;;;;3.70;1.60;;;38.40;1.00;;;;;;5113534;28;20230;-75
2022/08/13 07:51:42;;;;;;;1.73;1.52;;;37.60;1.00;;;;;;5113323;28;20174;-75
2022/08/13 07:54:09;;;;;;;1.77;1.50;;;37.00;1.00;;;;;;5113586;28;20175;-77
2022/08/13 07:56:36;;;;;;;1.50;1.40;;;38.30;1.00;;;;;;5113743;28;20290;-76
2022/08/13 07:59:12;;;;;;;3.17;1.52;;;40.00;1.00;;;;;;5113094;28;20215;-77
2022/08/13 08:01:50;;;;;;;3.33;2.80;;;40.30;1.00;;;;;;5113470;28;20198;-77
2022/08/13 08:04:17;;;;;;;2.80;2.60;;;40.30;1.00;;;;;;5113549;28;20173;-77
2022/08/13 08:06:45;;;;;;;2.10;1.98;;;40.20;1.00;;;;;;5112580;28;20177;-77
2022/08/13 08:09:18;;;;;;;2.08;1.92;;;39.90;1.00;;;;;;5113227;28;20183;-77
2022/08/13 08:14:30;;;;;;;3.78;2.05;;;40.50;1.00;;;;;;5113309;28;20274;-76
2022/08/13 08:17:00;;;;;;;7.72;3.05;;;41.70;1.00;;;;;;5113120;28;20223;-75
2022/08/13 08:19:31;;;;;;;2.17;2.00;;;42.80;1.00;;;;;;5112816;28;20209;-76
2022/08/13 08:21:58;;;;;;;2.38;1.50;;;42.20;1.00;;;;;;5094839;28;20269;-76
2022/08/13 08:24:26;;;;;;;2.05;1.73;;;42.10;1.00;;;;;;5113584;28;20170;-76
2022/08/13 08:26:55;;;;;;;1.80;1.50;;;41.40;1.00;;;;;;5112915;28;20269;-77
2022/08/13 08:29:21;;;;;;;5.72;2.17;;;41.20;1.00;;;;;;5112647;28;20206;-76
2022/08/13 08:31:50;;;;;;;8.23;2.65;;;40.30;1.00;;;;;;5113409;28;20625;-75
2022/08/13 08:34:18;;;;;;;2.85;1.40;;;40.60;1.00;;;;;;5113207;28;20170;-75
2022/08/13 08:36:44;;;;;;;3.40;1.67;;;40.50;1.00;;;;;;5112767;28;20163;-75
2022/08/13 08:44:43;;;;;;;1.65;1.55;;;41.80;1.00;;;;;;5117549;28;20177;-75
2022/08/13 08:47:09;;;;;;;2.13;1.30;;;40.70;1.00;;;;;;5116777;28;20245;-76
2022/08/13 08:49:36;;;;;;;2.25;1.40;;;40.70;1.00;;;;;;5116110;28;20209;-77
2022/08/13 08:52:03;;;;;;;3.05;1.50;;;41.00;1.00;;;;;;5117015;28;20566;-76
2022/08/13 08:54:30;;;;;;;1.58;1.50;;;40.10;1.00;;;;;;5117098;28;20259;-76
2022/08/13 08:56:56;;;;;;;2.28;1.23;;;39.90;1.00;;;;;;5116876;28;20262;-76
2022/08/13 08:59:23;;;;;;;1.80;1.50;;;40.20;1.00;;;;;;5116595;28;20641;-76
2022/08/13 09:01:52;;;;;;;1.40;1.30;;;39.20;1.00;;;;;;5115959;28;20155;-75
2022/08/13 09:04:20;;;;;;;2.05;1.50;;;39.50;1.00;;;;;;5116490;28;20182;-75
2022/08/13 09:06:49;;;;;;;1.75;1.60;;;39.00;1.00;;;;;;5116644;28;20590;-75
2022/08/13 09:09:17;;;;;;;1.85;1.42;;;39.00;1.00;;;;;;5116348;28;20594;-75
2022/08/13 09:11:43;;;;;;;4.32;1.70;;;38.70;1.00;;;;;;5098873;28;20644;-76
2022/08/13 09:14:10;;;;;;;6.57;1.60;;;38.50;1.00;;;;;;5116920;28;20198;-76
2022/08/13 09:16:39;;;;;;;1.35;1.30;;;38.30;1.00;;;;;;5116103;28;20241;-76
2022/08/13 09:19:11;;;;;;;16.95;3.92;;;38.40;1.00;;;;;;5116410;28;20167;-76
2022/08/13 09:21:46;;;;;;;5.70;2.03;;;37.60;1.00;;;;;;5116464;28;20208;-76
2022/08/13 09:24:15;;;;;;;3.25;1.35;;;37.90;1.00;;;;;;5116648;28;20194;-76
2022/08/13 09:26:45;;;;;;;2.20;1.35;;;38.50;1.00;;;;;;5116674;28;20178;-75
2022/08/13 09:29:18;;;;;;;7.38;2.22;;;38.70;1.00;;;;;;5116443;28;20210;-75
2022/08/13 09:31:45;;;;;;;4.07;1.40;;;38.60;1.00;;;;;;5116978;28;20162;-75
2022/08/13 09:34:11;;;;;;;1.45;1.38;;;38.50;1.00;;;;;;5116242;28;20171;-75
2022/08/13 09:36:38;;;;;;;3.13;1.20;;;39.20;1.00;;;;;;5116029;28;20170;-76
2022/08/13 09:39:05;;;;;;;1.33;1.23;;;39.10;1.00;;;;;;5116201;28;20533;-76
2022/08/13 09:41:37;;;;;;;2.28;1.02;;;39.50;1.00;;;;;;5116129;28;20216;-76
2022/08/13 09:44:04;;;;;;;3.58;1.23;;;38.50;1.00;;;;;;5097996;28;20175;-76
2022/08/13 09:46:32;;;;;;;0.93;0.90;;;38.60;1.00;;;;;;5116169;28;20253;-75
2022/08/13 09:48:58;;;;;;;1.00;1.00;;;38.20;1.00;;;;;;5115835;28;20202;-75
2022/08/13 09:51:24;;;;;;;1.38;1.00;;;38.70;1.00;;;;;;5116226;28;20173;-75
2022/08/13 09:53:51;;;;;;;1.10;1.00;;;39.70;1.00;;;;;;5115112;28;20197;-75
2022/08/13 09:56:17;;;;;;;5.65;2.03;;;41.10;1.00;;;;;;5097756;28;20167;-75
2022/08/13 09:58:46;;;;;;;5.72;5.30;;;42.10;1.00;;;;;;5114696;28;20174;-76
2022/08/13 10:01:13;;;;;;;6.07;1.70;;;41.80;1.00;;;;;;5115678;28;20159;-77
2022/08/13 10:03:41;;;;;;;1.60;1.30;;;41.70;1.00;;;;;;5115071;28;20167;-76
2022/08/13 10:06:07;;;;;;;1.27;1.17;;;42.10;1.00;;;;;;5115113;28;20189;-76
2022/08/13 10:08:34;;;;;;;1.10;1.10;;;40.60;1.00;;;;;;5115567;28;20174;-76
2022/08/13 10:11:00;;;;;;;2.45;1.42;;;39.10;1.00;;;;;;5114653;28;20240;-76
2022/08/13 10:13:26;;;;;;;0.85;0.85;;;39.00;1.00;;;;;;5115863;28;20601;-76
2022/08/13 10:15:51;;;;;;;6.90;1.50;;;38.50;1.00;;;;;;5115512;28;20162;-76
2022/08/13 10:18:17;;;;;;;1.10;1.00;;;37.70;1.00;;;;;;5115126;28;20588;-76
2022/08/13 10:20:45;;;;;;;2.70;1.35;;;37.60;1.00;;;;;;5115226;28;20521;-77
2022/08/13 10:23:13;;;;;;;2.53;1.20;;;37.70;1.00;;;;;;5115302;28;20171;-76
2022/08/13 10:25:40;;;;;;;2.83;1.30;;;37.10;1.00;;;;;;5115261;28;20316;-79
2022/08/13 10:28:20;;;;;;;1.20;1.10;;;36.40;1.00;;;;;;5115367;28;20190;-77
2022/08/13 10:30:46;;;;;;;2.33;1.23;;;36.20;1.00;;;;;;5115014;28;20225;-80
2022/08/13 10:33:13;;;;;;;1.30;1.20;;;36.70;1.00;;;;;;5116420;28;20606;-78
2022/08/13 10:35:40;;;;;;;1.85;1.75;;;36.60;1.00;;;;;;5116678;28;20205;-80
2022/08/13 10:38:07;;;;;;;2.58;1.13;;;36.80;1.00;;;;;;5125728;28;20177;-80
2022/08/13 10:40:33;;;;;;;2.13;1.38;;;36.20;1.00;;;;;;5123152;28;20169;-78
2022/08/13 10:42:58;;;;;;;2.05;1.85;;;36.20;1.00;;;;;;5126570;28;20191;-78
2022/08/13 10:45:24;;;;;;;1.55;1.45;;;35.60;1.00;;;;;;5102349;28;20177;-80
2022/08/13 10:47:51;;;;;;;1.42;1.10;;;35.90;1.00;;;;;;5118700;28;20174;-78
2022/08/13 10:50:20;;;;;;;1.60;1.20;;;35.70;1.00;;;;;;5114334;28;20210;-77
2022/08/13 10:52:46;;;;;;;1.80;1.08;;;36.10;1.00;;;;;;5115251;28;20181;-79
2022/08/13 10:55:14;;;;;;;2.20;1.83;;;37.40;1.00;;;;;;5116789;28;20638;-79
2022/08/13 10:57:43;;;;;;;1.30;1.10;;;36.30;1.00;;;;;;5115968;28;20167;-78
2022/08/13 11:00:11;;;;;;;2.88;1.50;;;36.00;1.00;;;;;;5115544;28;20163;-78
2022/08/13 11:02:37;;;;;;;7.72;2.45;;;36.30;1.00;;;;;;5119737;28;20184;-79
2022/08/13 11:05:05;;;;;;;1.95;1.67;;;36.30;1.00;;;;;;5121147;28;20233;-82
2022/08/13 11:07:32;;;;;;;2.13;2.03;;;34.80;1.00;;;;;;5114795;28;20167;-80
2022/08/13 11:09:59;;;;;;;2.50;1.73;;;33.40;1.00;;;;;;5115953;28;20203;-81
2022/08/13 11:12:25;;;;;;;2.13;2.03;;;33.80;1.00;;;;;;5115109;28;20171;-82
2022/08/13 11:14:52;;;;;;;1.25;1.15;;;33.60;1.00;;;;;;5099226;28;20175;-80
2022/08/13 11:17:18;;;;;;;2.60;1.10;;;34.20;1.00;;;;;;5087245;28;20220;-80
2022/08/13 11:19:48;;;;;;;1.30;1.30;;;34.00;1.00;;;;;;5078342;28;20176;-80
2022/08/13 11:22:14;;;;;;;2.65;1.40;;;33.90;1.00;;;;;;5075526;28;20165;-81
2022/08/13 11:24:40;;;;;;;1.95;1.55;;;33.60;1.00;;;;;;5073852;28;20628;-81
2022/08/13 11:27:06;;;;;;;1.48;1.38;;;33.50;1.00;;;;;;5073166;28;20198;-81
2022/08/13 11:29:31;;;;;;;1.40;1.30;;;33.80;1.00;;;;;;5072955;28;20207;-80
2022/08/13 11:31:57;;;;;;;1.38;1.30;;;33.60;1.00;;;;;;5073734;28;20514;-83
2022/08/13 11:34:24;;;;;;;3.88;1.33;;;33.50;1.00;;;;;;5072902;28;20175;-80
2022/08/13 11:36:51;;;;;;;2.25;1.13;;;33.00;1.00;;;;;;5071667;28;20174;-80
2022/08/13 11:39:17;;;;;;;3.60;2.88;;;33.30;1.00;;;;;;5072946;28;20187;-79
2022/08/13 11:41:43;;;;;;;7.70;2.33;;;33.80;1.00;;;;;;5073186;28;20502;-79
2022/08/13 11:44:08;;;;;;;3.13;2.83;;;33.50;1.00;;;;;;5072463;28;20218;-79
2022/08/13 11:46:34;;;;;;;2.05;1.60;;;33.60;1.00;;;;;;5073012;28;20195;-79
2022/08/13 11:49:00;;;;;;;1.50;1.30;;;33.50;1.00;;;;;;5072595;28;20196;-78
2022/08/13 11:51:25;;;;;;;2.22;1.80;;;32.90;1.00;;;;;;5070669;28;20199;-78
2022/08/13 11:53:51;;;;;;;1.35;1.25;;;32.40;1.00;;;;;;5072617;28;20650;-78
2022/08/13 11:56:17;;;;;;;2.08;1.02;;;32.80;1.00;;;;;;5072508;28;20191;-79
2022/08/13 11:58:42;;;;;;;3.10;1.10;;;33.30;1.00;;;;;;5071907;28;20644;-79
2022/08/13 12:01:08;;;;;;;2.40;1.00;;;34.20;1.00;;;;;;5072884;28;20635;-79
2022/08/13 12:03:39;;;;;;;1.33;1.23;;;34.50;1.00;;;;;;5072357;28;20320;-78
2022/08/13 12:06:05;;;;;;;1.00;0.93;;;33.60;1.00;;;;;;5072409;28;20172;-78
2022/08/13 12:08:31;;;;;;;3.97;1.17;;;33.00;1.00;;;;;;5072463;28;20173;-79
2022/08/13 12:10:57;;;;;;;1.85;1.15;;;33.10;1.00;;;;;;5072836;28;20239;-78
2022/08/13 12:13:23;;;;;;;1.58;1.00;;;33.00;1.00;;;;;;5072527;28;20176;-78
2022/08/13 12:15:49;;;;;;;3.10;1.45;;;32.90;1.00;;;;;;5072462;28;20168;-78
2022/08/13 12:18:17;;;;;;;2.03;1.77;;;32.60;1.00;;;;;;5111900;28;20214;-78
2022/08/13 12:20:43;;;;;;;1.17;1.17;;;32.30;1.00;;;;;;5094844;28;20182;-78
2022/08/13 12:23:09;;;;;;;1.52;1.42;;;31.70;1.00;;;;;;5113047;28;20163;-78
2022/08/13 12:25:35;;;;;;;1.63;1.52;;;31.40;1.00;;;;;;5113206;28;20250;-79
2022/08/13 12:28:24;;;;;;;2.65;1.25;;;31.50;1.00;;;;;;5112058;28;20203;-78
2022/08/13 12:30:56;;;;;;;1.55;1.20;;;31.60;1.00;;;;;;5113491;28;20209;-78
2022/08/13 12:33:23;;;;;;;2.95;1.15;;;31.60;1.00;;;;;;5113294;28;20170;-78
2022/08/13 12:35:50;;;;;;;1.67;1.58;;;31.50;1.00;;;;;;5112461;28;20710;-78
2022/08/13 12:38:16;;;;;;;6.82;1.48;;;31.80;1.00;;;;;;5113257;28;20179;-79
2022/08/13 12:40:46;;;;;;;1.45;1.45;;;32.10;1.00;;;;;;5112481;28;20167;-78
2022/08/13 12:43:12;;;;;;;1.42;1.20;;;31.90;1.00;;;;;;5113025;28;20172;-78
2022/08/13 12:45:39;;;;;;;1.75;1.05;;;31.60;1.00;;;;;;5112546;28;20166;-79
2022/08/13 12:48:18;;;;;;;4.68;1.83;;;31.50;1.00;;;;;;5094298;28;20167;-78
2022/08/13 12:50:46;;;;;;;2.83;2.63;;;31.20;1.00;;;;;;5112054;28;20222;-77
2022/08/13 12:53:12;;;;;;;1.48;1.33;;;31.20;1.00;;;;;;5112744;28;20167;-78
2022/08/13 12:55:40;;;;;;;1.40;1.30;;;31.50;1.00;;;;;;5112914;28;20235;-77
2022/08/13 12:58:20;;;;;;;1.58;1.00;;;31.70;1.00;;;;;;5112172;28;20168;-78
2022/08/13 13:00:48;;;;;;;1.65;1.30;;;31.60;1.00;;;;;;5112734;28;20209;-78
2022/08/13 13:03:15;;;;;;;1.35;1.25;;;31.50;1.00;;;;;;5112573;28;20175;-78
2022/08/13 13:05:42;;;;;;;1.73;1.63;;;31.30;1.00;;;;;;5112707;28;20195;-78
2022/08/13 13:08:21;;;;;;;2.95;1.27;;;31.60;1.00;;;;;;5112521;28;20303;-78
2022/08/13 13:10:47;;;;;;;2.67;1.38;;;31.60;1.00;;;;;;5112340;28;20282;-76
2022/08/13 13:13:19;;;;;;;2.40;1.40;;;31.50;1.00;;;;;;5094109;28;20164;-77
2022/08/13 13:15:45;;;;;;;3.00;1.50;;;31.70;1.00;;;;;;5112848;28;20164;-77
2022/08/13 13:18:16;;;;;;;1.23;1.20;;;31.80;1.00;;;;;;5112848;28;20223;-77
2022/08/13 13:20:43;;;;;;;4.03;3.60;;;32.00;1.00;;;;;;5112402;28;20201;-77